Time;durP1;ratioP1;P1;durP2;ratioP2;P2;SDS_P1;SDS_P2;PMS_P1;PMS_P2;Temp;Humidity;BMP_temperature;BMP_pressure;BME280_temperature;BME280_humidity;BME280_pressure;Samples;Min_cycle;Max_cycle;Signal;HPM_P1;HPM_P2
2024/01/10 00:00:12;;;;;;;281.30;153.90;;;;;;;-9.20;100.00;102383.57;111034;1252;23011;-76
2024/01/10 00:03:04;;;;;;;266.80;138.40;;;;;;;-9.22;100.00;102378.54;111073;1255;23012;-77
2024/01/10 00:05:36;;;;;;;287.30;147.90;;;;;;;-9.22;100.00;102377.65;111058;1255;23071;-77
2024/01/10 00:08:16;;;;;;;303.60;158.60;;;;;;;-9.23;100.00;102379.33;110853;1255;22000;-76
2024/01/10 00:10:46;;;;;;;307.90;161.00;;;;;;;-9.29;100.00;102371.45;111040;1255;23731;-77
2024/01/10 00:13:22;;;;;;;309.10;164.50;;;;;;;-9.30;100.00;102365.48;111018;1255;21964;-75
2024/01/10 00:15:55;;;;;;;281.00;147.00;;;;;;;-9.25;100.00;102372.10;111108;1255;22163;-77
2024/01/10 00:18:26;;;;;;;275.10;149.60;;;;;;;-9.24;100.00;102376.84;110912;1255;23704;-78
2024/01/10 00:21:00;;;;;;;278.10;142.60;;;;;;;-9.27;100.00;102381.70;110537;1262;23612;-77
2024/01/10 00:23:30;;;;;;;275.00;148.20;;;;;;;-9.28;100.00;102376.39;110461;1262;22390;-76
2024/01/10 00:26:04;;;;;;;272.60;146.50;;;;;;;-9.28;100.00;102375.20;110135;1266;22752;-77
2024/01/10 00:28:36;;;;;;;320.50;164.90;;;;;;;-9.29;100.00;102367.35;110009;1267;22737;-75
2024/01/10 00:31:06;;;;;;;320.30;167.90;;;;;;;-9.32;100.00;102364.82;109319;1271;21977;-77
2024/01/10 00:33:36;;;;;;;322.80;171.10;;;;;;;-9.34;100.00;102365.31;108994;1275;23612;-78
2024/01/10 00:36:09;;;;;;;338.80;181.90;;;;;;;-9.34;100.00;102369.54;108540;1279;22515;-77
2024/01/10 00:38:40;;;;;;;354.60;189.70;;;;;;;-9.34;100.00;102368.70;108602;1274;21996;-76
2024/01/10 00:41:11;;;;;;;376.90;204.20;;;;;;;-9.34;100.00;102365.99;108736;1279;23763;-77
2024/01/10 00:43:42;;;;;;;350.70;185.60;;;;;;;-9.36;100.00;102364.49;108973;1271;21993;-77
2024/01/10 00:46:18;;;;;;;370.70;195.10;;;;;;;-9.38;100.00;102368.35;109257;1271;21990;-77
2024/01/10 00:48:47;;;;;;;355.00;189.60;;;;;;;-9.39;100.00;102363.75;109463;1268;23613;-77
2024/01/10 00:51:17;;;;;;;354.10;185.60;;;;;;;-9.39;100.00;102361.73;109430;1269;21981;-76
2024/01/10 00:53:47;;;;;;;319.30;167.60;;;;;;;-9.39;100.00;102357.71;109551;1262;22914;-77
2024/01/10 00:56:17;;;;;;;305.30;161.60;;;;;;;-9.43;100.00;102352.86;109817;1269;21990;-77
2024/01/10 00:58:57;;;;;;;287.20;149.30;;;;;;;-9.46;100.00;102349.44;109885;1265;22008;-74
2024/01/10 01:01:29;;;;;;;282.50;150.40;;;;;;;-9.48;100.00;102346.95;110390;1265;21972;-77
2024/01/10 01:04:07;;;;;;;275.30;144.00;;;;;;;-9.48;100.00;102347.64;109244;1272;22088;-77
2024/01/10 01:06:38;;;;;;;276.30;140.50;;;;;;;-9.47;100.00;102350.05;109050;1267;22754;-78
2024/01/10 01:09:08;;;;;;;286.70;149.80;;;;;;;-9.44;100.00;102353.96;109197;1272;23052;-76
2024/01/10 01:11:40;;;;;;;290.40;153.40;;;;;;;-9.42;100.00;102350.38;109270;1271;21986;-75
2024/01/10 01:14:10;;;;;;;;;;;;;;;-9.42;100.00;102350.90;109501;1267;22064;-75
2024/01/10 01:16:41;;;;;;;324.60;155.90;;;;;;;-9.50;100.00;102351.98;109766;1267;22019;-76
2024/01/10 01:19:10;;;;;;;310.70;163.00;;;;;;;-9.54;100.00;102348.70;110024;1267;21982;-76
2024/01/10 01:21:40;;;;;;;306.90;164.90;;;;;;;-9.54;100.00;102347.84;110070;1267;21960;-75
2024/01/10 01:24:13;;;;;;;323.70;174.80;;;;;;;-9.72;100.00;102319.50;109337;1272;23136;-76
2024/01/10 01:26:43;;;;;;;;;;;;;;;-9.55;100.00;102347.39;109643;1270;22921;-75
2024/01/10 01:29:17;;;;;;;313.50;158.20;;;;;;;-9.65;100.00;102345.66;109836;1268;23714;-76
2024/01/10 01:31:55;;;;;;;267.20;137.40;;;;;;;-9.71;100.00;102341.30;110075;1262;24308;-76
2024/01/10 01:34:32;;;;;;;270.70;136.50;;;;;;;-9.68;100.00;102344.73;109516;1272;22953;-76
2024/01/10 01:37:02;;;;;;;271.90;143.90;;;;;;;-9.68;100.00;102345.92;109077;1275;23460;-76
2024/01/10 01:39:35;;;;;;;248.60;129.60;;;;;;;-9.67;100.00;102343.12;109076;1275;21991;-76
2024/01/10 01:42:05;;;;;;;233.80;126.70;;;;;;;-9.68;100.00;102339.20;109383;1264;21983;-77
2024/01/10 01:44:39;;;;;;;235.20;129.80;;;;;;;-9.71;100.00;102338.09;110254;1263;23707;-76
2024/01/10 01:47:12;;;;;;;261.10;130.60;;;;;;;-9.72;100.00;102334.33;110271;1263;23024;-75
2024/01/10 01:49:43;;;;;;;254.50;136.00;;;;;;;-9.72;100.00;102327.59;110140;1263;23604;-75
2024/01/10 01:52:19;;;;;;;255.60;131.20;;;;;;;-9.73;100.00;102326.97;110468;1260;23587;-77
2024/01/10 01:54:50;;;;;;;267.80;137.00;;;;;;;-9.76;100.00;102330.27;110791;1254;23780;-78
2024/01/10 01:57:23;;;;;;;256.30;138.30;;;;;;;-9.75;100.00;102334.75;110854;1254;22004;-77
2024/01/10 01:59:55;;;;;;;240.40;132.70;;;;;;;-9.72;100.00;102334.30;110620;1260;21973;-76
2024/01/10 02:02:25;;;;;;;246.80;134.30;;;;;;;-9.72;100.00;102336.98;110129;1265;21981;-76
2024/01/10 02:05:01;;;;;;;256.10;136.50;;;;;;;-9.74;100.00;102342.55;109408;1270;22057;-76
2024/01/10 02:08:00;;;;;;;249.30;134.80;;;;;;;-9.75;100.00;102340.51;109711;1270;23037;-75
2024/01/10 02:10:33;;;;;;;255.40;137.70;;;;;;;-9.75;100.00;102341.30;109602;1270;23624;-76
2024/01/10 02:13:08;;;;;;;249.80;135.60;;;;;;;-9.74;100.00;102340.54;109686;1270;21998;-76
2024/01/10 02:15:41;;;;;;;243.10;130.40;;;;;;;-9.75;100.00;102335.43;108921;1274;23628;-76
2024/01/10 02:18:14;;;;;;;255.10;136.90;;;;;;;-9.78;100.00;102336.39;109071;1272;22015;-77
2024/01/10 02:20:49;;;;;;;253.30;135.10;;;;;;;-9.79;100.00;102334.59;109655;1267;21971;-75
2024/01/10 02:23:20;;;;;;;246.20;134.20;;;;;;;-9.81;100.00;102332.27;110020;1263;21984;-76
2024/01/10 02:25:56;;;;;;;234.50;125.80;;;;;;;-9.83;100.00;102331.61;110155;1263;23025;-76
2024/01/10 02:28:30;;;;;;;244.30;127.80;;;;;;;-9.84;100.00;102333.41;109845;1268;22465;-77
2024/01/10 02:31:03;;;;;;;234.20;126.60;;;;;;;-9.88;100.00;102325.69;109846;1268;23021;-77
2024/01/10 02:33:39;;;;;;;227.90;124.20;;;;;;;-9.94;100.00;102325.58;109808;1250;21967;-77
2024/01/10 02:36:11;;;;;;;229.50;125.40;;;;;;;-9.96;100.00;102319.84;110567;1262;23764;-76
2024/01/10 02:38:45;;;;;;;227.60;120.20;;;;;;;-9.99;100.00;102312.73;110557;1262;22015;-75
2024/01/10 02:41:23;;;;;;;234.00;123.30;;;;;;;-10.04;100.00;102311.37;110452;1259;23155;-76
2024/01/10 02:43:58;;;;;;;231.60;122.30;;;;;;;-10.11;100.00;102308.45;110607;1260;21970;-76
2024/01/10 02:46:33;;;;;;;220.40;121.80;;;;;;;-10.16;100.00;102304.69;110764;1254;23026;-76
2024/01/10 02:49:06;;;;;;;212.40;120.10;;;;;;;-10.20;100.00;102304.02;111100;1244;23040;-78
2024/01/10 02:51:40;;;;;;;226.10;120.40;;;;;;;-10.22;100.00;102300.86;111086;1254;21958;-76
2024/01/10 02:54:10;;;;;;;;;;;;;;;-10.20;100.00;102302.48;110562;1261;23598;-78
2024/01/10 02:56:45;;;;;;;211.00;110.40;;;;;;;-10.24;100.00;102300.50;110613;1260;22169;-76
2024/01/10 02:59:20;;;;;;;205.60;110.20;;;;;;;-10.23;100.00;102294.55;110422;1260;21972;-77
2024/01/10 03:01:50;;;;;;;209.80;112.10;;;;;;;-10.20;100.00;102295.30;110687;1260;23743;-77
2024/01/10 03:04:21;;;;;;;194.10;108.30;;;;;;;-10.17;100.00;102298.35;110555;1260;22363;-77
2024/01/10 03:06:51;;;;;;;199.60;108.90;;;;;;;-10.17;100.00;102299.71;110473;1260;22731;-77
2024/01/10 03:09:25;;;;;;;191.90;107.20;;;;;;;-10.18;100.00;102301.34;110060;1264;21945;-75
2024/01/10 03:11:58;;;;;;;200.90;107.10;;;;;;;-10.19;100.00;102293.85;110350;1260;22354;-77
2024/01/10 03:14:27;;;;;;;202.10;110.70;;;;;;;-10.20;100.00;102291.06;110742;1260;21969;-77
2024/01/10 03:16:57;;;;;;;196.40;107.30;;;;;;;-10.17;100.00;102295.32;110096;1263;22724;-77
2024/01/10 03:19:27;;;;;;;207.70;111.00;;;;;;;-10.14;100.00;102294.55;110325;1263;22183;-77
2024/01/10 03:22:02;;;;;;;202.60;109.40;;;;;;;-10.12;100.00;102294.20;110376;1263;21986;-77
2024/01/10 03:24:40;;;;;;;192.70;108.70;;;;;;;-10.13;100.00;102299.98;109499;1269;22073;-77
2024/01/10 03:27:13;;;;;;;193.40;105.70;;;;;;;-10.15;100.00;102302.23;109824;1269;21978;-75
2024/01/10 03:29:46;;;;;;;197.30;108.40;;;;;;;-10.14;100.00;102300.45;109691;1269;22042;-75
2024/01/10 03:32:16;;;;;;;187.40;102.60;;;;;;;-10.11;100.00;102305.38;109180;1273;22736;-76
2024/01/10 03:34:46;;;;;;;213.70;111.50;;;;;;;-10.08;100.00;102305.44;108889;1272;24301;-75
2024/01/10 03:37:16;;;;;;;202.60;110.00;;;;;;;-10.07;100.00;102305.55;109376;1272;21978;-77
2024/01/10 03:39:48;;;;;;;186.60;106.20;;;;;;;-10.07;100.00;102306.71;108822;1276;22015;-77
2024/01/10 03:42:20;;;;;;;197.30;106.50;;;;;;;-10.08;100.00;102303.30;108875;1275;21988;-76
2024/01/10 03:44:53;;;;;;;195.20;105.10;;;;;;;-10.17;100.00;102285.09;108612;1280;22011;-76
2024/01/10 03:47:28;;;;;;;200.70;109.30;;;;;;;-10.11;100.00;102297.70;108622;1280;21995;-75
2024/01/10 03:49:58;;;;;;;220.10;111.30;;;;;;;-10.13;100.00;102292.23;108807;1277;22358;-77
2024/01/10 03:52:29;;;;;;;211.70;114.70;;;;;;;-10.17;100.00;102291.81;108872;1275;22007;-75
2024/01/10 03:55:02;;;;;;;211.10;111.90;;;;;;;-10.20;100.00;102291.73;108939;1275;21991;-77
2024/01/10 03:57:38;;;;;;;198.80;111.10;;;;;;;-10.26;100.00;102294.31;109383;1268;23615;-75
2024/01/10 04:00:12;;;;;;;201.50;110.60;;;;;;;-10.29;100.00;102294.25;109839;1262;23588;-74
2024/01/10 04:02:49;;;;;;;203.90;111.50;;;;;;;-10.31;100.00;102288.91;110642;1255;21972;-78
2024/01/10 04:05:22;;;;;;;208.30;113.60;;;;;;;-10.34;100.00;102290.71;110847;1255;21966;-78
2024/01/10 04:07:56;;;;;;;211.70;121.20;;;;;;;-10.36;100.00;102292.86;110632;1260;21967;-77
2024/01/10 04:10:30;;;;;;;203.40;115.40;;;;;;;-10.38;100.00;102290.70;110702;1260;21989;-77
2024/01/10 04:13:04;;;;;;;249.50;142.50;;;;;;;-10.39;100.00;102289.44;110700;1255;22773;-77
2024/01/10 04:15:36;;;;;;;204.60;115.90;;;;;;;-10.43;100.00;102294.23;110554;1260;22732;-78
2024/01/10 04:18:09;;;;;;;203.90;113.60;;;;;;;-10.45;100.00;102296.42;110081;1265;22874;-76
2024/01/10 04:20:50;;;;;;;202.60;107.60;;;;;;;-10.46;100.00;102296.20;110218;1260;23605;-76
2024/01/10 04:23:22;;;;;;;215.30;112.80;;;;;;;-10.45;100.00;102292.91;110231;1264;21979;-78
2024/01/10 04:25:57;;;;;;;211.10;113.90;;;;;;;-10.43;100.00;102295.05;109558;1268;23682;-77
2024/01/10 04:28:27;;;;;;;209.70;111.00;;;;;;;-10.42;100.00;102303.20;109899;1268;21992;-76
2024/01/10 04:30:57;;;;;;;190.10;109.40;;;;;;;-10.45;100.00;102293.04;109253;1272;23713;-76
2024/01/10 04:33:30;;;;;;;203.50;112.30;;;;;;;-10.45;100.00;102284.48;108725;1279;21992;-76
2024/01/10 04:36:00;;;;;;;207.60;111.40;;;;;;;-10.39;100.00;102287.92;108771;1279;22005;-78
2024/01/10 04:38:29;;;;;;;214.20;115.00;;;;;;;-10.41;100.00;102284.47;108669;1279;22260;-77
2024/01/10 04:41:00;;;;;;;275.60;156.50;;;;;;;-10.41;100.00;102283.23;108769;1279;23063;-77
2024/01/10 04:43:31;;;;;;;206.10;114.60;;;;;;;-10.36;100.00;102280.76;109011;1272;22115;-76
2024/01/10 04:46:00;;;;;;;207.60;112.60;;;;;;;-10.34;100.00;102277.04;108980;1275;23676;-77
2024/01/10 04:48:32;;;;;;;397.90;233.20;;;;;;;-10.32;100.00;102280.58;108537;1281;22027;-76
2024/01/10 04:51:06;;;;;;;436.00;264.40;;;;;;;-10.30;100.00;102277.90;108774;1272;21992;-76
2024/01/10 04:53:39;;;;;;;440.10;267.90;;;;;;;-10.27;100.00;102279.74;109630;1271;21984;-76
2024/01/10 04:56:09;;;;;;;301.90;167.00;;;;;;;-10.25;100.00;102282.45;109606;1265;21970;-77
2024/01/10 04:58:42;;;;;;;402.20;213.00;;;;;;;-10.24;100.00;102281.38;110052;1265;23713;-77
2024/01/10 05:01:11;;;;;;;;;;;;;;;-10.23;100.00;102278.54;110369;1263;22086;-77
2024/01/10 05:03:50;;;;;;;264.30;125.80;;;;;;;-10.34;100.00;102281.77;110231;1265;23566;-77
2024/01/10 05:06:23;;;;;;;285.30;136.50;;;;;;;-10.38;100.00;102280.64;109794;1262;22023;-77
2024/01/10 05:08:58;;;;;;;280.20;140.70;;;;;;;-10.35;100.00;102279.65;110535;1262;21977;-76
2024/01/10 05:11:28;;;;;;;272.60;139.30;;;;;;;-10.31;100.00;102277.26;110148;1262;22007;-77
2024/01/10 05:14:02;;;;;;;240.50;127.40;;;;;;;-10.29;100.00;102275.22;110436;1262;21918;-78
2024/01/10 05:16:36;;;;;;;214.70;116.80;;;;;;;-10.32;100.00;102276.89;110459;1262;21970;-77
2024/01/10 05:19:09;;;;;;;208.90;109.50;;;;;;;-10.38;100.00;102278.09;109675;1269;23035;-78
2024/01/10 05:21:41;;;;;;;219.50;115.20;;;;;;;-10.42;100.00;102283.69;109480;1269;21982;-77
2024/01/10 05:24:12;;;;;;;209.90;111.40;;;;;;;-10.47;100.00;102285.17;109721;1265;21992;-77
2024/01/10 05:26:42;;;;;;;218.00;116.20;;;;;;;-10.51;100.00;102284.67;110112;1265;22987;-78
2024/01/10 05:29:11;;;;;;;214.40;114.80;;;;;;;-10.54;100.00;102283.38;109760;1265;21979;-79
2024/01/10 05:31:41;;;;;;;239.00;126.60;;;;;;;-10.60;100.00;102286.50;110095;1265;22536;-78
2024/01/10 05:34:11;;;;;;;230.50;125.80;;;;;;;-10.65;100.00;102283.92;110061;1265;22427;-79
2024/01/10 05:36:41;;;;;;;240.80;124.90;;;;;;;-10.73;100.00;102274.52;110404;1254;22368;-77
2024/01/10 05:39:15;;;;;;;244.20;123.40;;;;;;;-10.74;100.00;102283.84;111139;1254;23708;-76
2024/01/10 05:41:48;;;;;;;220.90;120.80;;;;;;;-10.76;100.00;102278.84;111213;1254;21974;-78
2024/01/10 05:44:18;;;;;;;228.80;119.80;;;;;;;-10.75;100.00;102280.38;111323;1254;22121;-77
2024/01/10 05:46:51;;;;;;;240.90;125.10;;;;;;;-10.74;100.00;102275.95;111122;1254;22841;-77
2024/01/10 05:49:22;;;;;;;236.40;123.00;;;;;;;-10.73;100.00;102273.48;111129;1254;22417;-75
2024/01/10 05:51:51;;;;;;;243.10;123.90;;;;;;;-10.81;100.00;102264.14;111155;1254;23711;-78
2024/01/10 05:54:22;;;;;;;234.30;123.90;;;;;;;-10.79;100.00;102264.64;111334;1254;21971;-77
2024/01/10 05:56:52;;;;;;;246.50;129.20;;;;;;;-10.83;100.00;102266.88;111333;1251;23020;-78
2024/01/10 05:59:22;;;;;;;250.70;132.80;;;;;;;-10.87;100.00;102265.05;110862;1254;312657;-76
2024/01/10 06:01:55;;;;;;;251.20;136.80;;;;;;;-10.89;100.00;102265.70;111349;1254;23640;-77
2024/01/10 06:04:30;;;;;;;250.50;134.40;;;;;;;-10.89;100.00;102268.07;111142;1254;21968;-75
2024/01/10 06:07:05;;;;;;;245.80;132.10;;;;;;;-10.88;100.00;102267.83;111373;1254;22197;-76
2024/01/10 06:09:35;;;;;;;258.40;133.60;;;;;;;-10.89;100.00;102264.88;111100;1254;21993;-77
2024/01/10 06:12:06;;;;;;;269.50;140.30;;;;;;;-10.93;100.00;102262.52;110517;1261;23018;-77
2024/01/10 06:14:36;;;;;;;269.10;139.80;;;;;;;-10.96;100.00;102267.30;110587;1261;23037;-75
2024/01/10 06:17:09;;;;;;;266.90;141.10;;;;;;;-10.97;100.00;102268.76;110584;1261;21989;-75
2024/01/10 06:19:45;;;;;;;252.70;131.80;;;;;;;-10.97;100.00;102272.29;110653;1261;21974;-76
2024/01/10 06:22:18;;;;;;;247.50;130.30;;;;;;;-10.99;100.00;102275.98;110376;1261;22221;-78
2024/01/10 06:24:50;;;;;;;247.30;127.80;;;;;;;-11.01;100.00;102277.55;110651;1261;21971;-75
2024/01/10 06:27:23;;;;;;;246.90;128.50;;;;;;;-11.02;100.00;102273.56;110444;1261;22005;-76
2024/01/10 06:29:53;;;;;;;266.10;134.80;;;;;;;-11.02;100.00;102272.05;110486;1254;24019;-77
2024/01/10 06:32:24;;;;;;;245.00;130.20;;;;;;;-11.03;100.00;102266.98;111235;1254;22051;-78
2024/01/10 06:34:54;;;;;;;254.80;134.40;;;;;;;-11.01;100.00;102264.78;111094;1254;24374;-77
2024/01/10 06:37:24;;;;;;;238.70;130.30;;;;;;;-11.01;100.00;102260.10;111421;1253;22004;-78
2024/01/10 06:39:54;;;;;;;251.30;129.10;;;;;;;-11.03;100.00;102253.02;111153;1254;23030;-78
2024/01/10 06:42:26;;;;;;;240.50;128.90;;;;;;;-11.03;100.00;102256.73;110743;1259;23609;-77
2024/01/10 06:45:03;;;;;;;250.40;130.00;;;;;;;-11.04;100.00;102258.13;110463;1262;21981;-77
2024/01/10 06:47:33;;;;;;;247.80;131.30;;;;;;;-11.07;100.00;102254.33;110437;1263;23699;-77
2024/01/10 06:50:08;;;;;;;243.00;131.70;;;;;;;-11.10;100.00;102250.73;110212;1267;23147;-77
2024/01/10 06:52:45;;;;;;;256.30;136.40;;;;;;;-11.12;100.00;102248.58;109735;1267;21960;-77
2024/01/10 06:55:18;;;;;;;250.60;136.20;;;;;;;-11.11;100.00;102248.80;110118;1267;22837;-75
2024/01/10 06:57:54;;;;;;;267.90;148.40;;;;;;;-11.11;100.00;102247.30;110070;1266;21981;-77
2024/01/10 07:00:26;;;;;;;250.80;134.00;;;;;;;-11.10;100.00;102242.52;110019;1263;23701;-76
2024/01/10 07:03:03;;;;;;;269.30;134.40;;;;;;;-11.06;100.00;102239.50;109538;1270;21979;-77
2024/01/10 07:05:39;;;;;;;259.10;137.80;;;;;;;-11.01;100.00;102234.31;109606;1270;23631;-77
2024/01/10 07:08:12;;;;;;;264.10;139.50;;;;;;;-10.97;100.00;102237.64;109644;1265;23716;-78
2024/01/10 07:10:50;;;;;;;248.60;136.40;;;;;;;-10.94;100.00;102240.27;110493;1259;21972;-78
2024/01/10 07:13:48;;;;;;;250.50;135.00;;;;;;;-10.91;100.00;102242.02;110255;1253;23028;-78
2024/01/10 07:16:21;;;;;;;270.40;143.90;;;;;;;-10.87;100.00;102237.98;110237;1265;23703;-77
2024/01/10 07:18:51;;;;;;;263.60;139.40;;;;;;;-10.83;100.00;102234.21;110243;1265;23676;-78
2024/01/10 07:21:21;;;;;;;262.00;143.30;;;;;;;-10.81;100.00;102240.41;110616;1259;21964;-78
2024/01/10 07:23:55;;;;;;;284.00;149.20;;;;;;;-10.79;100.00;102241.61;110795;1259;21972;-77
2024/01/10 07:26:27;;;;;;;321.50;182.70;;;;;;;-10.75;100.00;102242.59;110852;1259;22228;-78
2024/01/10 07:29:03;;;;;;;268.60;148.80;;;;;;;-10.70;100.00;102243.14;110722;1259;23771;-78
2024/01/10 07:31:32;;;;;;;279.20;146.50;;;;;;;-10.66;100.00;102238.75;110914;1254;23622;-78
2024/01/10 07:34:07;;;;;;;284.20;152.40;;;;;;;-10.61;100.00;102241.96;111141;1254;22733;-78
2024/01/10 07:36:51;;;;;;;281.60;149.80;;;;;;;-10.58;100.00;102244.92;111279;1254;22366;-77
2024/01/10 07:39:21;;;;;;;293.80;157.40;;;;;;;-10.53;100.00;102245.26;111141;1254;21967;-78
2024/01/10 07:41:51;;;;;;;288.10;154.00;;;;;;;-10.47;100.00;102246.09;111311;1254;22492;-77
2024/01/10 07:44:21;;;;;;;288.00;151.10;;;;;;;-10.40;100.00;102245.93;111341;1254;23035;-77
2024/01/10 07:46:53;;;;;;;274.00;150.40;;;;;;;-10.34;100.00;102241.52;111127;1254;22393;-76
2024/01/10 07:49:24;;;;;;;277.30;147.60;;;;;;;-10.29;100.00;102241.22;111069;1254;21964;-76
2024/01/10 07:51:56;;;;;;;;;;;;;;;-10.24;100.00;102242.61;111154;1254;22011;-76
2024/01/10 07:54:29;;;;;;;276.80;138.30;;;;;;;-10.26;100.00;102241.65;111340;1254;22048;-76
2024/01/10 07:57:06;;;;;;;271.20;147.30;;;;;;;-10.20;100.00;102238.00;110702;1260;22004;-78
2024/01/10 07:59:38;;;;;;;277.10;149.10;;;;;;;-10.11;100.00;102239.20;110745;1260;22012;-77
2024/01/10 08:02:10;;;;;;;280.70;155.40;;;;;;;-10.02;100.00;102239.05;110634;1260;22008;-77
2024/01/10 08:04:39;;;;;;;286.20;157.60;;;;;;;-9.94;100.00;102239.50;110605;1260;23653;-76
2024/01/10 08:07:09;;;;;;;275.00;153.60;;;;;;;-9.88;100.00;102233.86;110633;1260;21958;-76
2024/01/10 08:09:39;;;;;;;301.00;172.90;;;;;;;-9.80;100.00;102230.71;110659;1260;23700;-77
2024/01/10 08:12:08;;;;;;;297.00;168.20;;;;;;;-9.72;100.00;102233.06;110683;1259;22185;-76
2024/01/10 08:14:38;;;;;;;284.00;161.40;;;;;;;-9.61;100.00;102230.66;110696;1259;21986;-76
2024/01/10 08:17:07;;;;;;;273.10;154.00;;;;;;;-9.49;100.00;102233.70;110501;1260;21967;-77
2024/01/10 08:19:40;;;;;;;248.60;143.60;;;;;;;-9.38;100.00;102232.69;110607;1260;23731;-78
2024/01/10 08:22:09;;;;;;;250.50;141.80;;;;;;;-9.27;100.00;102234.15;111066;1255;21971;-78
2024/01/10 08:25:02;;;;;;;255.00;141.60;;;;;;;-9.15;100.00;102238.08;111112;1255;23020;-77
2024/01/10 08:27:57;;;;;;;242.10;135.50;;;;;;;-9.02;100.00;102238.30;110679;1260;21981;-79
2024/01/10 08:31:53;;;;;;;224.90;124.10;;;;;;;-8.91;100.00;102235.90;110647;1260;21973;-78
2024/01/10 08:35:28;;;;;;;228.30;122.70;;;;;;;-8.76;100.00;102236.23;109256;1273;21979;-77
2024/01/10 08:39:31;;;;;;;217.00;115.60;;;;;;;-8.59;100.00;102235.39;108412;1286;21999;-79
2024/01/10 08:42:49;;;;;;;199.70;114.20;;;;;;;-8.41;100.00;102235.64;107826;1292;22039;-77
2024/01/10 08:45:42;;;;;;;205.50;115.80;;;;;;;-8.24;100.00;102234.56;107748;1289;22764;-79
2024/01/10 08:48:13;;;;;;;205.60;117.80;;;;;;;-8.10;100.00;102235.74;107922;1291;22007;-77
2024/01/10 08:51:33;;;;;;;;;;;;;;;;;;;;;
2024/01/10 08:54:19;;;;;;;194.30;114.30;;;;;;;-7.85;100.00;102245.51;108030;1290;23762;-78
2024/01/10 08:57:02;;;;;;;200.10;114.10;;;;;;;-7.73;100.00;102244.59;108253;1284;22099;-77
2024/01/10 09:00:38;;;;;;;202.60;118.20;;;;;;;-7.62;100.00;102244.48;108354;1284;22015;-82
2024/01/10 09:04:02;;;;;;;;;;;;;;;;;;;;;
2024/01/10 09:07:09;;;;;;;193.70;112.50;;;;;;;-7.37;100.00;102254.44;109540;1267;24326;-80
2024/01/10 09:10:11;;;;;;;188.50;111.80;;;;;;;-7.24;100.00;102257.48;109537;1273;24378;-78
2024/01/10 09:13:39;;;;;;;;;;;;;;;;;;;;;
2024/01/10 09:17:21;;;;;;;196.90;114.10;;;;;;;-6.96;100.00;102258.05;110452;1266;22399;-78
2024/01/10 09:21:35;;;;;;;;;;;;;;;;;;;;;
2024/01/10 09:24:14;;;;;;;197.70;118.40;;;;;;;-6.75;100.00;102238.95;110396;1266;21981;-79
2024/01/10 09:27:25;;;;;;;;;;;;;;;-6.65;100.00;102243.77;110286;1266;21973;-79
2024/01/10 09:30:14;;;;;;;224.90;123.30;;;;;;;-6.60;100.00;102246.77;110281;1269;22003;-80
2024/01/10 09:33:07;;;;;;;179.60;112.90;;;;;;;-6.45;100.00;102241.08;109607;1269;22420;-79
2024/01/10 09:35:53;;;;;;;175.90;111.10;;;;;;;-6.31;100.00;102230.94;109665;1257;23047;-80
2024/01/10 09:38:53;;;;;;;179.70;117.90;;;;;;;-6.14;100.00;102227.38;109350;1274;23136;-78
2024/01/10 09:41:51;;;;;;;190.10;112.90;;;;;;;-5.96;100.00;102226.79;109157;1272;21999;-79
2024/01/10 09:44:35;;;;;;;187.10;115.10;;;;;;;-5.75;100.00;102224.92;109109;1275;21989;-78
2024/01/10 09:47:22;;;;;;;;;;;;;;;-5.46;100.00;102225.56;109108;1275;21966;-77
2024/01/10 09:50:20;;;;;;;181.30;106.10;;;;;;;-5.30;100.00;102220.91;109111;1275;22144;-78
2024/01/10 09:53:26;;;;;;;186.00;116.70;;;;;;;-5.09;100.00;102214.26;109013;1276;23167;-78
2024/01/10 09:56:37;;;;;;;176.20;109.30;;;;;;;-4.82;100.00;102211.86;108865;1273;22033;-77
2024/01/10 10:01:16;;;;;;;;;;;;;;;;;;;;;
2024/01/10 10:06:01;;;;;;;143.10;87.70;;;;;;;-4.40;100.00;102214.59;109308;1273;21990;-79
2024/01/10 10:10:07;;;;;;;145.60;89.20;;;;;;;-4.20;100.00;102215.98;109039;1274;22964;-79
2024/01/10 10:14:38;;;;;;;147.00;91.00;;;;;;;-3.87;100.00;102213.45;108803;1276;24422;-78
2024/01/10 10:22:42;;;;;;;141.50;90.50;;;;;;;-3.65;100.00;102207.52;107765;1294;23317;-77
2024/01/10 10:27:33;;;;;;;;;;;;;;;;;;;;;
2024/01/10 10:55:37;;;;;;;;;;;;;;;;;;;;;
2024/01/10 11:00:17;;;;;;;;;;;;;;;;;;;;;
2024/01/10 11:08:30;;;;;;;135.10;89.60;;;;;;;-2.03;100.00;102165.77;107505;1268;3334349;-79
2024/01/10 11:12:47;;;;;;;169.20;108.00;;;;;;;-2.15;100.00;102158.96;108830;1279;22978;-78
2024/01/10 11:17:19;;;;;;;167.50;100.90;;;;;;;-2.18;100.00;102152.69;108434;1286;22933;-78
2024/01/10 11:21:14;;;;;;;134.00;85.60;;;;;;;-2.18;100.00;102142.82;108075;1291;22007;-79
2024/01/10 11:25:32;;;;;;;149.10;95.10;;;;;;;-2.15;100.00;102137.13;107677;1296;23759;-78
2024/01/10 11:30:04;;;;;;;;;;;;;;;;;;;;;
2024/01/10 11:33:59;;;;;;;;;;;;;;;;;;;;;
2024/01/10 11:38:00;;;;;;;155.80;97.90;;;;;;;-2.04;100.00;102127.20;106989;1301;22067;-77
2024/01/10 11:41:53;;;;;;;123.20;76.50;;;;;;;-1.99;100.00;102122.63;107436;1297;22046;-79
2024/01/10 11:45:09;;;;;;;131.90;83.00;;;;;;;-2.02;100.00;102111.59;107988;1292;22036;-78
2024/01/10 11:48:28;;;;;;;135.90;87.30;;;;;;;-2.05;100.00;102102.25;107689;1287;23072;-76
2024/01/10 11:51:03;;;;;;;131.00;85.70;;;;;;;-2.06;100.00;102098.94;108361;1287;22000;-77
2024/01/10 11:53:46;;;;;;;134.00;87.90;;;;;;;-2.13;100.00;102095.09;108330;1287;22454;-76
2024/01/10 11:56:17;;;;;;;129.70;86.10;;;;;;;-2.15;100.00;102095.15;108363;1287;25004;-77
2024/01/10 11:59:24;;;;;;;119.40;79.50;;;;;;;-2.17;100.00;102099.34;108563;1282;22650;-78
2024/01/10 12:01:55;;;;;;;119.00;79.20;;;;;;;-2.22;100.00;102095.55;109250;1272;22001;-79
2024/01/10 12:05:30;;;;;;;120.50;77.90;;;;;;;-2.28;100.00;102095.29;109458;1272;21983;-78
2024/01/10 12:08:52;;;;;;;119.50;79.20;;;;;;;-2.32;100.00;102098.52;109470;1264;22043;-79
2024/01/10 12:12:12;;;;;;;120.10;81.90;;;;;;;-2.32;100.00;102095.47;110522;1264;23698;-79
2024/01/10 12:16:09;;;;;;;128.80;80.70;;;;;;;-2.32;100.00;102096.85;110551;1262;21986;-79
2024/01/10 12:18:55;;;;;;;135.80;88.80;;;;;;;-2.35;100.00;102098.94;108808;1279;21998;-76
2024/01/10 12:21:28;;;;;;;130.70;89.00;;;;;;;-2.33;100.00;102104.45;108825;1280;21984;-78
2024/01/10 12:25:25;;;;;;;;;;;;;;;-2.33;100.00;102108.55;108837;1279;21969;-76
2024/01/10 12:33:31;;;;;;;103.70;66.30;;;;;;;-2.44;100.00;102100.42;108097;1289;22492;-77
2024/01/10 12:36:26;;;;;;;112.30;65.80;;;;;;;-2.43;100.00;102101.66;108081;1289;22020;-76
2024/01/10 12:39:50;;;;;;;99.40;64.20;;;;;;;-2.45;100.00;102089.95;108031;1291;22006;-76
2024/01/10 12:43:29;;;;;;;106.40;71.70;;;;;;;-2.19;100.00;102084.44;108081;1287;550568;-75
2024/01/10 13:48:44;;;;;;;113.20;71.50;;;;;;;-2.35;100.00;102050.84;108540;1281;22028;-77
2024/01/10 14:03:00;;;;;;;124.60;87.20;;;;;;;-1.04;100.00;102039.39;110595;1252;548423;-77
2024/01/10 14:06:58;;;;;;;;;;;;;;;;;;;;;
2024/01/10 14:11:49;;;;;;;;;;;;;;;;;;;;;